sensor_id;sensor_type;location;lat;lon;timestamp;pressure;altitude;pressure_sealevel;temperature;humidity
21096;BME280;10706;49.036;12.112;2023-12-04T07:58:48;97736.63;;;-6.54;78.56
21096;BME280;10706;49.036;12.112;2023-12-04T08:01:15;97736.81;;;-6.46;75.63
21096;BME280;10706;49.036;12.112;2023-12-04T08:03:41;97736.53;;;-6.22;74.79
21096;BME280;10706;49.036;12.112;2023-12-04T08:06:07;97739.97;;;-6.42;75.08
21096;BME280;10706;49.036;12.112;2023-12-04T08:08:33;97744.78;;;-6.80;75.59
21096;BME280;10706;49.036;12.112;2023-12-04T08:10:59;97749.22;;;-6.71;75.82
21096;BME280;10706;49.036;12.112;2023-12-04T08:13:25;97745.75;;;-6.81;75.94
21096;BME280;10706;49.036;12.112;2023-12-04T08:15:51;97725.44;;;-6.24;74.28
21096;BME280;10706;49.036;12.112;2023-12-04T08:18:17;97723.13;;;-6.48;75.50
21096;BME280;10706;49.036;12.112;2023-12-04T08:20:43;97718.69;;;-6.06;73.31
21096;BME280;10706;49.036;12.112;2023-12-04T08:23:09;97729.53;;;-6.00;72.64
21096;BME280;10706;49.036;12.112;2023-12-04T08:25:35;97737.44;;;-6.02;71.56
21096;BME280;10706;49.036;12.112;2023-12-04T08:28:05;97735.84;;;-6.24;71.73
21096;BME280;10706;49.036;12.112;2023-12-04T08:30:31;97724.84;;;-5.97;71.17
21096;BME280;10706;49.036;12.112;2023-12-04T08:32:58;97723.78;;;-5.84;71.07
21096;BME280;10706;49.036;12.112;2023-12-04T08:35:24;97724.00;;;-6.07;72.01
21096;BME280;10706;49.036;12.112;2023-12-04T08:37:50;97721.03;;;-5.93;72.81
21096;BME280;10706;49.036;12.112;2023-12-04T08:40:16;97716.75;;;-5.63;71.29
21096;BME280;10706;49.036;12.112;2023-12-04T08:42:43;97713.88;;;-5.50;71.50
21096;BME280;10706;49.036;12.112;2023-12-04T08:45:11;97717.75;;;-5.35;71.10
21096;BME280;10706;49.036;12.112;2023-12-04T08:47:37;97703.34;;;-5.39;70.73
21096;BME280;10706;49.036;12.112;2023-12-04T08:50:03;97697.31;;;-5.49;70.96
21096;BME280;10706;49.036;12.112;2023-12-04T08:52:29;97705.34;;;-5.81;72.13
21096;BME280;10706;49.036;12.112;2023-12-04T08:54:55;97705.72;;;-5.96;73.46
21096;BME280;10706;49.036;12.112;2023-12-04T08:57:21;97695.69;;;-5.40;72.83
21096;BME280;10706;49.036;12.112;2023-12-04T08:59:47;97696.81;;;-5.23;72.71
21096;BME280;10706;49.036;12.112;2023-12-04T09:02:13;97700.59;;;-4.89;69.75
21096;BME280;10706;49.036;12.112;2023-12-04T09:04:39;97703.22;;;-4.98;70.26
21096;BME280;10706;49.036;12.112;2023-12-04T09:07:05;97703.22;;;-4.98;70.58
21096;BME280;10706;49.036;12.112;2023-12-04T09:09:31;97706.38;;;-4.95;70.35
21096;BME280;10706;49.036;12.112;2023-12-04T09:11:59;97700.47;;;-4.87;70.54
21096;BME280;10706;49.036;12.112;2023-12-04T09:14:24;97694.69;;;-4.71;70.83
21096;BME280;10706;49.036;12.112;2023-12-04T09:16:51;97701.28;;;-4.67;71.65
21096;BME280;10706;49.036;12.112;2023-12-04T09:19:17;97687.78;;;-4.43;68.50
21096;BME280;10706;49.036;12.112;2023-12-04T09:21:43;97689.88;;;-4.66;70.47
21096;BME280;10706;49.036;12.112;2023-12-04T09:24:10;97691.44;;;-4.36;69.48
21096;BME280;10706;49.036;12.112;2023-12-04T09:26:36;97687.44;;;-4.20;69.44
21096;BME280;10706;49.036;12.112;2023-12-04T09:29:02;97672.91;;;-3.95;67.40
21096;BME280;10706;49.036;12.112;2023-12-04T09:31:28;97674.81;;;-4.25;68.80
21096;BME280;10706;49.036;12.112;2023-12-04T09:33:55;97681.16;;;-4.00;68.00
21096;BME280;10706;49.036;12.112;2023-12-04T09:36:21;97683.41;;;-4.05;68.10
21096;BME280;10706;49.036;12.112;2023-12-04T09:38:47;97686.06;;;-4.24;68.55
21096;BME280;10706;49.036;12.112;2023-12-04T09:41:15;97677.72;;;-4.28;69.01
21096;BME280;10706;49.036;12.112;2023-12-04T09:43:42;97673.06;;;-4.34;68.63
21096;BME280;10706;49.036;12.112;2023-12-04T09:46:09;97667.69;;;-4.23;70.21
21096;BME280;10706;49.036;12.112;2023-12-04T09:48:36;97657.88;;;-4.11;68.96
21096;BME280;10706;49.036;12.112;2023-12-04T09:51:03;97655.34;;;-3.93;68.54
21096;BME280;10706;49.036;12.112;2023-12-04T09:53:30;97656.59;;;-3.69;68.10
21096;BME280;10706;49.036;12.112;2023-12-04T09:55:59;97640.16;;;-3.80;67.39
21096;BME280;10706;49.036;12.112;2023-12-04T09:58:30;97634.06;;;-3.71;67.94
21096;BME280;10706;49.036;12.112;2023-12-04T10:01:00;97628.03;;;-3.71;68.40
21096;BME280;10706;49.036;12.112;2023-12-04T10:03:27;97625.94;;;-3.49;68.12
21096;BME280;10706;49.036;12.112;2023-12-04T10:05:55;97628.56;;;-3.49;67.65
21096;BME280;10706;49.036;12.112;2023-12-04T10:08:21;97624.44;;;-3.34;67.40
21096;BME280;10706;49.036;12.112;2023-12-04T10:10:47;97629.47;;;-3.23;66.91
21096;BME280;10706;49.036;12.112;2023-12-04T10:13:13;97620.63;;;-3.04;67.70
21096;BME280;10706;49.036;12.112;2023-12-04T10:15:50;97612.28;;;-3.07;67.54
21096;BME280;10706;49.036;12.112;2023-12-04T10:18:27;97621.75;;;-2.80;66.09
21096;BME280;10706;49.036;12.112;2023-12-04T10:20:55;97611.16;;;-2.79;65.68
21096;BME280;10706;49.036;12.112;2023-12-04T10:23:22;97602.09;;;-2.66;65.21
21096;BME280;10706;49.036;12.112;2023-12-04T10:25:51;97605.16;;;-2.97;67.34
21096;BME280;10706;49.036;12.112;2023-12-04T10:28:19;97607.41;;;-2.76;68.25
21096;BME280;10706;49.036;12.112;2023-12-04T10:30:46;97604.84;;;-2.42;65.53
21096;BME280;10706;49.036;12.112;2023-12-04T10:33:12;97593.38;;;-2.06;63.81
21096;BME280;10706;49.036;12.112;2023-12-04T10:35:40;97594.97;;;-2.13;65.15
21096;BME280;10706;49.036;12.112;2023-12-04T10:38:07;97591.78;;;-2.33;66.73
21096;BME280;10706;49.036;12.112;2023-12-04T10:40:35;97589.47;;;-2.02;65.88
21096;BME280;10706;49.036;12.112;2023-12-04T10:43:23;97574.13;;;-1.89;64.99
21096;BME280;10706;49.036;12.112;2023-12-04T10:45:50;97579.13;;;-2.12;65.39
21096;BME280;10706;49.036;12.112;2023-12-04T10:48:21;97580.41;;;-2.16;66.00
21096;BME280;10706;49.036;12.112;2023-12-04T10:50:48;97572.19;;;-2.29;65.87
21096;BME280;10706;49.036;12.112;2023-12-04T10:53:16;97578.84;;;-1.92;65.84
21096;BME280;10706;49.036;12.112;2023-12-04T10:55:43;97573.66;;;-1.68;65.36
21096;BME280;10706;49.036;12.112;2023-12-04T10:58:15;97567.78;;;-1.70;65.31
21096;BME280;10706;49.036;12.112;2023-12-04T11:00:48;97560.56;;;-1.60;64.79
21096;BME280;10706;49.036;12.112;2023-12-04T11:06:00;97558.63;;;-2.33;67.08
21096;BME280;10706;49.036;12.112;2023-12-04T11:08:29;97553.34;;;-1.99;67.16
21096;BME280;10706;49.036;12.112;2023-12-04T11:12:32;97543.97;;;-2.60;68.71
21096;BME280;10706;49.036;12.112;2023-12-04T11:15:01;97546.09;;;-2.05;68.14
21096;BME280;10706;49.036;12.112;2023-12-04T11:17:31;97539.94;;;-1.79;67.36
21096;BME280;10706;49.036;12.112;2023-12-04T11:20:07;97531.28;;;-1.80;66.85
21096;BME280;10706;49.036;12.112;2023-12-04T11:22:38;97522.47;;;-1.62;67.75
21096;BME280;10706;49.036;12.112;2023-12-04T11:25:06;97518.38;;;-1.65;67.52
21096;BME280;10706;49.036;12.112;2023-12-04T11:27:34;97519.69;;;-1.52;67.16
21096;BME280;10706;49.036;12.112;2023-12-04T11:30:02;97510.19;;;-1.70;67.52
21096;BME280;10706;49.036;12.112;2023-12-04T11:32:35;97499.38;;;-1.50;67.00
21096;BME280;10706;49.036;12.112;2023-12-04T11:35:14;97499.63;;;-2.36;67.81
21096;BME280;10706;49.036;12.112;2023-12-04T11:37:42;97491.78;;;-2.36;68.71
21096;BME280;10706;49.036;12.112;2023-12-04T11:40:12;97493.94;;;-2.15;68.38
21096;BME280;10706;49.036;12.112;2023-12-04T11:42:38;97491.72;;;-1.68;67.31
21096;BME280;10706;49.036;12.112;2023-12-04T11:45:05;97485.19;;;-1.72;67.06
21096;BME280;10706;49.036;12.112;2023-12-04T11:47:51;97487.63;;;-1.54;67.07
21096;BME280;10706;49.036;12.112;2023-12-04T11:50:21;97482.38;;;-1.54;65.46
21096;BME280;10706;49.036;12.112;2023-12-04T11:52:48;97477.47;;;-1.41;66.86
21096;BME280;10706;49.036;12.112;2023-12-04T11:55:21;97460.78;;;-1.40;66.90
21096;BME280;10706;49.036;12.112;2023-12-04T11:57:50;97458.44;;;-1.10;65.90
21096;BME280;10706;49.036;12.112;2023-12-04T12:05:23;97453.94;;;-0.93;65.73
21096;BME280;10706;49.036;12.112;2023-12-04T12:07:49;97451.72;;;-0.73;64.98
21096;BME280;10706;49.036;12.112;2023-12-04T12:10:18;97447.22;;;-0.56;63.47
21096;BME280;10706;49.036;12.112;2023-12-04T12:12:44;97442.72;;;-0.71;64.56
21096;BME280;10706;49.036;12.112;2023-12-04T12:15:11;97442.97;;;-0.57;64.06
21096;BME280;10706;49.036;12.112;2023-12-04T12:17:38;97445.56;;;-0.81;65.25
21096;BME280;10706;49.036;12.112;2023-12-04T12:20:14;97436.09;;;-0.90;64.78
21096;BME280;10706;49.036;12.112;2023-12-04T12:22:40;97436.25;;;-0.91;64.34
21096;BME280;10706;49.036;12.112;2023-12-04T12:25:10;97433.19;;;-0.64;63.68
21096;BME280;10706;49.036;12.112;2023-12-04T12:27:37;97433.84;;;-0.70;63.57
21096;BME280;10706;49.036;12.112;2023-12-04T12:30:04;97433.38;;;-0.73;63.97
21096;BME280;10706;49.036;12.112;2023-12-04T12:32:34;97419.63;;;-0.75;63.60
21096;BME280;10706;49.036;12.112;2023-12-04T12:35:00;97411.13;;;-0.77;64.06
21096;BME280;10706;49.036;12.112;2023-12-04T12:37:29;97396.84;;;-1.06;65.53
21096;BME280;10706;49.036;12.112;2023-12-04T12:39:56;97400.78;;;-0.71;64.98
21096;BME280;10706;49.036;12.112;2023-12-04T12:42:28;97414.69;;;-0.70;64.60
21096;BME280;10706;49.036;12.112;2023-12-04T12:44:55;97403.09;;;-0.45;64.04
21096;BME280;10706;49.036;12.112;2023-12-04T12:47:23;97406.47;;;-0.36;64.58
21096;BME280;10706;49.036;12.112;2023-12-04T12:49:49;97416.06;;;-0.51;63.93
21096;BME280;10706;49.036;12.112;2023-12-04T12:52:15;97406.69;;;-0.23;62.48
21096;BME280;10706;49.036;12.112;2023-12-04T12:54:43;97406.28;;;-0.11;62.27
21096;BME280;10706;49.036;12.112;2023-12-04T12:57:10;97407.19;;;0.04;62.55
21096;BME280;10706;49.036;12.112;2023-12-04T12:59:38;97405.53;;;-0.74;65.60
21096;BME280;10706;49.036;12.112;2023-12-04T13:02:05;97403.19;;;-0.61;65.94
21096;BME280;10706;49.036;12.112;2023-12-04T13:04:39;97408.25;;;-0.60;65.90
21096;BME280;10706;49.036;12.112;2023-12-04T13:07:05;97406.38;;;-0.51;65.91
21096;BME280;10706;49.036;12.112;2023-12-04T13:09:33;97403.50;;;-0.33;65.25
21096;BME280;10706;49.036;12.112;2023-12-04T13:11:58;97392.44;;;-0.43;65.60
21096;BME280;10706;49.036;12.112;2023-12-04T13:14:25;97382.13;;;-0.45;66.24
21096;BME280;10706;49.036;12.112;2023-12-04T13:16:51;97382.91;;;-0.21;64.79
21096;BME280;10706;49.036;12.112;2023-12-04T13:19:17;97389.16;;;-0.22;64.33
21096;BME280;10706;49.036;12.112;2023-12-04T13:21:43;97378.38;;;-0.27;64.12
21096;BME280;10706;49.036;12.112;2023-12-04T13:24:10;97378.16;;;-0.72;65.85
21096;BME280;10706;49.036;12.112;2023-12-04T13:26:36;97381.81;;;-1.12;67.17
21096;BME280;10706;49.036;12.112;2023-12-04T13:29:02;97382.06;;;-0.99;66.98
21096;BME280;10706;49.036;12.112;2023-12-04T13:31:28;97377.94;;;-0.62;65.85
21096;BME280;10706;49.036;12.112;2023-12-04T13:33:54;97386.34;;;-0.67;66.43
21096;BME280;10706;49.036;12.112;2023-12-04T13:36:20;97386.41;;;-0.52;66.22
21096;BME280;10706;49.036;12.112;2023-12-04T13:38:46;97384.53;;;-0.66;66.89
21096;BME280;10706;49.036;12.112;2023-12-04T13:41:12;97382.47;;;-1.19;68.60
21096;BME280;10706;49.036;12.112;2023-12-04T13:43:56;97367.59;;;-0.87;67.98
21096;BME280;10706;49.036;12.112;2023-12-04T13:46:25;97355.41;;;-1.03;67.63
21096;BME280;10706;49.036;12.112;2023-12-04T13:48:56;97355.31;;;-1.18;68.24
21096;BME280;10706;49.036;12.112;2023-12-04T13:51:22;97345.22;;;-1.37;68.49
21096;BME280;10706;49.036;12.112;2023-12-04T13:53:48;97334.50;;;-1.59;70.03
21096;BME280;10706;49.036;12.112;2023-12-04T13:56:16;97344.56;;;-1.39;69.67
21096;BME280;10706;49.036;12.112;2023-12-04T13:59:07;97341.19;;;-1.17;68.83
21096;BME280;10706;49.036;12.112;2023-12-04T14:01:33;97340.63;;;-0.95;67.94
21096;BME280;10706;49.036;12.112;2023-12-04T14:03:59;97335.19;;;-0.94;68.97
21096;BME280;10706;49.036;12.112;2023-12-04T14:06:28;97332.25;;;-0.91;68.71
21096;BME280;10706;49.036;12.112;2023-12-04T14:08:56;97332.25;;;-0.91;68.76
21096;BME280;10706;49.036;12.112;2023-12-04T14:11:22;97340.50;;;-1.02;69.42
21096;BME280;10706;49.036;12.112;2023-12-04T14:13:48;97337.88;;;-1.02;69.88
21096;BME280;10706;49.036;12.112;2023-12-04T14:16:14;97318.38;;;-1.39;69.49
21096;BME280;10706;49.036;12.112;2023-12-04T14:18:42;97311.25;;;-1.53;70.55
21096;BME280;10706;49.036;12.112;2023-12-04T14:21:17;97305.34;;;-1.47;72.00
21096;BME280;10706;49.036;12.112;2023-12-04T14:23:43;97299.63;;;-1.51;72.07
21096;BME280;10706;49.036;12.112;2023-12-04T14:26:09;97297.44;;;-1.87;72.77
21096;BME280;10706;49.036;12.112;2023-12-04T14:28:35;97294.13;;;-1.72;72.93
21096;BME280;10706;49.036;12.112;2023-12-04T14:31:03;97287.38;;;-1.59;71.45
21096;BME280;10706;49.036;12.112;2023-12-04T14:33:33;97289.13;;;-1.99;73.18
21096;BME280;10706;49.036;12.112;2023-12-04T14:35:59;97290.34;;;-1.70;72.73
21096;BME280;10706;49.036;12.112;2023-12-04T14:38:25;97291.41;;;-1.96;73.37
21096;BME280;10706;49.036;12.112;2023-12-04T14:40:52;97280.53;;;-1.68;73.32
21096;BME280;10706;49.036;12.112;2023-12-04T14:43:18;97279.63;;;-2.00;74.52
21096;BME280;10706;49.036;12.112;2023-12-04T14:45:47;97265.19;;;-1.79;73.74
21096;BME280;10706;49.036;12.112;2023-12-04T14:48:13;97259.28;;;-1.73;73.22
21096;BME280;10706;49.036;12.112;2023-12-04T14:50:39;97263.09;;;-1.84;73.39
21096;BME280;10706;49.036;12.112;2023-12-04T14:53:05;97254.06;;;-2.29;74.90
21096;BME280;10706;49.036;12.112;2023-12-04T14:55:49;97263.97;;;-2.16;74.92
21096;BME280;10706;49.036;12.112;2023-12-04T14:58:33;97258.91;;;-2.09;74.47
21096;BME280;10706;49.036;12.112;2023-12-04T15:01:19;97256.25;;;-2.01;73.52
21096;BME280;10706;49.036;12.112;2023-12-04T15:04:20;97260.50;;;-1.92;74.34
21096;BME280;10706;49.036;12.112;2023-12-04T15:07:08;97264.28;;;-2.03;73.63
21096;BME280;10706;49.036;12.112;2023-12-04T15:09:49;97260.69;;;-2.02;73.75
21096;BME280;10706;49.036;12.112;2023-12-04T15:12:33;97254.97;;;-2.05;74.62
21096;BME280;10706;49.036;12.112;2023-12-04T15:15:17;97250.94;;;-2.24;75.42
21096;BME280;10706;49.036;12.112;2023-12-04T15:18:21;97246.66;;;-2.25;76.26
21096;BME280;10706;49.036;12.112;2023-12-04T15:21:08;97249.97;;;-2.23;75.76
21096;BME280;10706;49.036;12.112;2023-12-04T15:23:34;97240.78;;;-2.19;75.58
21096;BME280;10706;49.036;12.112;2023-12-04T15:26:01;97232.69;;;-2.74;77.69
21096;BME280;10706;49.036;12.112;2023-12-04T15:28:27;97220.09;;;-2.70;78.25
21096;BME280;10706;49.036;12.112;2023-12-04T15:30:54;97228.41;;;-2.42;76.64
21096;BME280;10706;49.036;12.112;2023-12-04T15:33:22;97232.16;;;-2.36;77.70
21096;BME280;10706;49.036;12.112;2023-12-04T15:35:51;97235.91;;;-2.30;77.34
21096;BME280;10706;49.036;12.112;2023-12-04T15:38:18;97233.09;;;-2.21;76.42
21096;BME280;10706;49.036;12.112;2023-12-04T15:40:45;97231.94;;;-2.18;76.31
21096;BME280;10706;49.036;12.112;2023-12-04T15:43:10;97226.59;;;-2.25;76.58
21096;BME280;10706;49.036;12.112;2023-12-04T15:45:36;97223.63;;;-2.22;75.01
21096;BME280;10706;49.036;12.112;2023-12-04T15:48:02;97216.59;;;-2.29;76.24
21096;BME280;10706;49.036;12.112;2023-12-04T15:50:28;97226.25;;;-2.30;76.54
21096;BME280;10706;49.036;12.112;2023-12-04T15:52:55;97222.34;;;-2.42;76.17
21096;BME280;10706;49.036;12.112;2023-12-04T15:55:21;97223.84;;;-2.40;75.16
21096;BME280;10706;49.036;12.112;2023-12-04T15:57:49;97225.00;;;-2.67;76.98
21096;BME280;10706;49.036;12.112;2023-12-04T16:00:21;97241.34;;;-2.57;76.08
21096;BME280;10706;49.036;12.112;2023-12-04T16:03:03;97238.06;;;-2.67;75.74
21096;BME280;10706;49.036;12.112;2023-12-04T16:05:30;97230.06;;;-2.57;76.44
21096;BME280;10706;49.036;12.112;2023-12-04T16:07:55;97225.47;;;-2.80;76.81
21096;BME280;10706;49.036;12.112;2023-12-04T16:10:22;97234.31;;;-2.64;76.06
21096;BME280;10706;49.036;12.112;2023-12-04T16:12:48;97269.03;;;-3.05;77.70
21096;BME280;10706;49.036;12.112;2023-12-04T16:15:14;97272.47;;;-3.21;79.87
21096;BME280;10706;49.036;12.112;2023-12-04T16:17:43;97267.75;;;-3.60;81.77
21096;BME280;10706;49.036;12.112;2023-12-04T16:20:12;97256.94;;;-3.22;79.43
21096;BME280;10706;49.036;12.112;2023-12-04T16:22:47;97253.69;;;-3.08;79.29
21096;BME280;10706;49.036;12.112;2023-12-04T16:25:14;97251.25;;;-3.01;77.80
21096;BME280;10706;49.036;12.112;2023-12-04T16:27:46;97238.38;;;-2.95;77.21
21096;BME280;10706;49.036;12.112;2023-12-04T16:30:12;97233.78;;;-3.01;76.96
21096;BME280;10706;49.036;12.112;2023-12-04T16:32:39;97245.69;;;-3.23;76.52
21096;BME280;10706;49.036;12.112;2023-12-04T16:35:29;97251.41;;;-3.03;75.62
21096;BME280;10706;49.036;12.112;2023-12-04T16:37:56;97248.31;;;-3.23;76.09
21096;BME280;10706;49.036;12.112;2023-12-04T16:40:24;97254.84;;;-3.19;76.04
21096;BME280;10706;49.036;12.112;2023-12-04T16:42:50;97257.28;;;-3.09;77.03
21096;BME280;10706;49.036;12.112;2023-12-04T16:45:16;97245.16;;;-3.35;77.38
21096;BME280;10706;49.036;12.112;2023-12-04T16:47:42;97236.38;;;-3.25;75.58
21096;BME280;10706;49.036;12.112;2023-12-04T16:50:08;97238.84;;;-3.24;75.95
21096;BME280;10706;49.036;12.112;2023-12-04T16:52:36;97229.66;;;-3.36;75.79
21096;BME280;10706;49.036;12.112;2023-12-04T16:55:02;97233.56;;;-3.40;76.10
21096;BME280;10706;49.036;12.112;2023-12-04T16:57:27;97237.63;;;-3.54;76.23
21096;BME280;10706;49.036;12.112;2023-12-04T16:59:54;97230.25;;;-3.59;76.99
21096;BME280;10706;49.036;12.112;2023-12-04T17:02:20;97219.88;;;-3.42;76.21
21096;BME280;10706;49.036;12.112;2023-12-04T17:04:46;97221.88;;;-3.28;75.07
21096;BME280;10706;49.036;12.112;2023-12-04T17:07:11;97212.41;;;-3.13;74.56
21096;BME280;10706;49.036;12.112;2023-12-04T17:09:37;97211.38;;;-3.53;76.21
21096;BME280;10706;49.036;12.112;2023-12-04T17:12:10;97219.41;;;-3.29;76.18
21096;BME280;10706;49.036;12.112;2023-12-04T17:14:36;97209.97;;;-3.22;75.57
21096;BME280;10706;49.036;12.112;2023-12-04T17:17:02;97214.38;;;-3.23;74.77
21096;BME280;10706;49.036;12.112;2023-12-04T17:19:28;97207.19;;;-3.21;74.46
21096;BME280;10706;49.036;12.112;2023-12-04T17:22:00;97210.13;;;-3.16;74.89
21096;BME280;10706;49.036;12.112;2023-12-04T17:24:26;97208.16;;;-3.14;75.18
21096;BME280;10706;49.036;12.112;2023-12-04T17:26:52;97207.00;;;-3.19;74.86
21096;BME280;10706;49.036;12.112;2023-12-04T17:29:19;97210.13;;;-3.16;74.13
21096;BME280;10706;49.036;12.112;2023-12-04T17:31:45;97207.69;;;-3.17;74.92
21096;BME280;10706;49.036;12.112;2023-12-04T17:34:11;97200.81;;;-3.18;76.12
21096;BME280;10706;49.036;12.112;2023-12-04T17:36:37;97201.78;;;-3.36;75.17
21096;BME280;10706;49.036;12.112;2023-12-04T17:39:03;97182.72;;;-3.28;74.94
21096;BME280;10706;49.036;12.112;2023-12-04T17:41:35;97176.16;;;-3.40;75.40
21096;BME280;10706;49.036;12.112;2023-12-04T17:44:04;97189.03;;;-3.39;74.30
21096;BME280;10706;49.036;12.112;2023-12-04T17:46:29;97187.59;;;-3.41;75.83
21096;BME280;10706;49.036;12.112;2023-12-04T17:48:55;97178.28;;;-3.19;76.34
21096;BME280;10706;49.036;12.112;2023-12-04T17:51:23;97168.69;;;-3.19;74.95
21096;BME280;10706;49.036;12.112;2023-12-04T17:53:49;97179.59;;;-3.23;76.02
21096;BME280;10706;49.036;12.112;2023-12-04T17:56:15;97188.53;;;-3.42;75.53
21096;BME280;10706;49.036;12.112;2023-12-04T17:58:41;97180.41;;;-3.39;76.19
21096;BME280;10706;49.036;12.112;2023-12-04T18:01:07;97186.44;;;-3.47;76.56
21096;BME280;10706;49.036;12.112;2023-12-04T18:03:32;97171.88;;;-3.58;76.45
21096;BME280;10706;49.036;12.112;2023-12-04T18:06:02;97178.41;;;-3.54;76.48
21096;BME280;10706;49.036;12.112;2023-12-04T18:08:28;97187.53;;;-3.66;76.86
21096;BME280;10706;49.036;12.112;2023-12-04T18:10:55;97190.19;;;-3.41;76.21
21096;BME280;10706;49.036;12.112;2023-12-04T18:13:21;97183.63;;;-3.45;75.90
21096;BME280;10706;49.036;12.112;2023-12-04T18:15:46;97173.53;;;-3.48;77.29
21096;BME280;10706;49.036;12.112;2023-12-04T18:18:12;97166.81;;;-3.59;78.13
21096;BME280;10706;49.036;12.112;2023-12-04T18:20:38;97172.84;;;-3.67;78.35
21096;BME280;10706;49.036;12.112;2023-12-04T18:23:06;97160.31;;;-3.63;77.91
21096;BME280;10706;49.036;12.112;2023-12-04T18:25:32;97153.91;;;-3.77;78.27
21096;BME280;10706;49.036;12.112;2023-12-04T18:27:58;97153.59;;;-3.74;78.09
21096;BME280;10706;49.036;12.112;2023-12-04T18:30:27;97149.88;;;-3.63;76.12
21096;BME280;10706;49.036;12.112;2023-12-04T18:32:54;97158.28;;;-3.86;78.18
21096;BME280;10706;49.036;12.112;2023-12-04T18:35:20;97161.53;;;-3.84;76.62
21096;BME280;10706;49.036;12.112;2023-12-04T18:38:05;97153.72;;;-3.92;77.02
21096;BME280;10706;49.036;12.112;2023-12-04T18:40:33;97168.84;;;-3.96;76.50
21096;BME280;10706;49.036;12.112;2023-12-04T18:43:17;97169.78;;;-4.05;76.58
21096;BME280;10706;49.036;12.112;2023-12-04T18:46:37;97167.13;;;-4.47;78.41
21096;BME280;10706;49.036;12.112;2023-12-04T18:49:16;97167.69;;;-4.36;77.10
21096;BME280;10706;49.036;12.112;2023-12-04T18:51:43;97165.06;;;-4.36;77.64
21096;BME280;10706;49.036;12.112;2023-12-04T18:54:12;97162.19;;;-4.24;78.08
21096;BME280;10706;49.036;12.112;2023-12-04T18:56:42;97157.34;;;-4.19;78.15
21096;BME280;10706;49.036;12.112;2023-12-04T18:59:15;97153.13;;;-4.20;77.20
21096;BME280;10706;49.036;12.112;2023-12-04T19:01:41;97139.41;;;-4.22;76.74
21096;BME280;10706;49.036;12.112;2023-12-04T19:04:10;97133.75;;;-4.52;79.10
21096;BME280;10706;49.036;12.112;2023-12-04T19:06:39;97144.44;;;-4.29;78.47
21096;BME280;10706;49.036;12.112;2023-12-04T19:09:41;97144.94;;;-4.25;78.78
21096;BME280;10706;49.036;12.112;2023-12-04T19:12:11;97137.69;;;-4.48;78.14
21096;BME280;10706;49.036;12.112;2023-12-04T19:14:57;97135.34;;;-4.17;78.02
21096;BME280;10706;49.036;12.112;2023-12-04T19:17:23;97131.31;;;-4.11;78.07
21096;BME280;10706;49.036;12.112;2023-12-04T19:19:49;97134.91;;;-4.12;78.78
21096;BME280;10706;49.036;12.112;2023-12-04T19:22:15;97132.00;;;-4.01;77.34
21096;BME280;10706;49.036;12.112;2023-12-04T19:24:42;97129.97;;;-4.15;78.95
21096;BME280;10706;49.036;12.112;2023-12-04T19:27:08;97139.88;;;-4.27;79.86
21096;BME280;10706;49.036;12.112;2023-12-04T19:29:34;97139.81;;;-4.09;78.54
21096;BME280;10706;49.036;12.112;2023-12-04T19:32:00;97157.88;;;-4.07;79.77
21096;BME280;10706;49.036;12.112;2023-12-04T19:34:25;97172.16;;;-4.20;78.45
21096;BME280;10706;49.036;12.112;2023-12-04T19:36:52;97182.00;;;-4.40;79.20
21096;BME280;10706;49.036;12.112;2023-12-04T19:39:17;97171.03;;;-4.17;79.41
21096;BME280;10706;49.036;12.112;2023-12-04T19:41:43;97167.50;;;-4.08;79.36
21096;BME280;10706;49.036;12.112;2023-12-04T19:44:09;97166.09;;;-3.86;78.96
21096;BME280;10706;49.036;12.112;2023-12-04T19:46:42;97168.13;;;-3.72;78.39
21096;BME280;10706;49.036;12.112;2023-12-04T19:49:08;97163.66;;;-3.79;78.88
21096;BME280;10706;49.036;12.112;2023-12-04T19:51:35;97154.38;;;-3.74;78.42
21096;BME280;10706;49.036;12.112;2023-12-04T19:54:01;97150.63;;;-3.79;78.56
21096;BME280;10706;49.036;12.112;2023-12-04T19:56:27;97130.16;;;-3.58;78.17
21096;BME280;10706;49.036;12.112;2023-12-04T19:58:53;97122.94;;;-3.80;78.02
21096;BME280;10706;49.036;12.112;2023-12-04T20:01:26;97116.84;;;-3.97;77.73
21096;BME280;10706;49.036;12.112;2023-12-04T20:03:52;97107.63;;;-3.75;77.27
21096;BME280;10706;49.036;12.112;2023-12-04T20:06:20;97106.28;;;-3.79;78.32
21096;BME280;10706;49.036;12.112;2023-12-04T20:08:46;97105.47;;;-3.80;76.88
21096;BME280;10706;49.036;12.112;2023-12-04T20:11:12;97118.66;;;-3.89;77.39
21096;BME280;10706;49.036;12.112;2023-12-04T20:13:38;97130.06;;;-3.91;77.96
21096;BME280;10706;49.036;12.112;2023-12-04T20:16:14;97131.81;;;-4.07;77.24
21096;BME280;10706;49.036;12.112;2023-12-04T20:18:41;97124.19;;;-4.01;78.12
21096;BME280;10706;49.036;12.112;2023-12-04T20:21:07;97139.22;;;-3.86;76.87
21096;BME280;10706;49.036;12.112;2023-12-04T20:23:34;97129.75;;;-3.87;76.86
21096;BME280;10706;49.036;12.112;2023-12-04T20:26:01;97125.69;;;-3.74;75.96
21096;BME280;10706;49.036;12.112;2023-12-04T20:28:27;97121.50;;;-3.58;76.73
21096;BME280;10706;49.036;12.112;2023-12-04T20:30:54;97124.28;;;-3.60;75.42
21096;BME280;10706;49.036;12.112;2023-12-04T20:33:20;97126.19;;;-3.86;76.28
21096;BME280;10706;49.036;12.112;2023-12-04T20:35:47;97121.44;;;-3.91;77.07
21096;BME280;10706;49.036;12.112;2023-12-04T20:38:14;97134.50;;;-3.83;75.48
21096;BME280;10706;49.036;12.112;2023-12-04T20:40:41;97125.94;;;-4.10;76.95
21096;BME280;10706;49.036;12.112;2023-12-04T20:43:07;97126.97;;;-4.37;78.17
21096;BME280;10706;49.036;12.112;2023-12-04T20:45:34;97120.06;;;-4.12;78.79
21096;BME280;10706;49.036;12.112;2023-12-04T20:48:03;97122.13;;;-4.32;77.88
21096;BME280;10706;49.036;12.112;2023-12-04T20:50:36;97123.16;;;-4.16;78.36
21096;BME280;10706;49.036;12.112;2023-12-04T20:53:02;97117.56;;;-4.30;77.66
21096;BME280;10706;49.036;12.112;2023-12-04T20:55:31;97115.13;;;-4.31;77.75
21096;BME280;10706;49.036;12.112;2023-12-04T20:57:58;97119.16;;;-4.37;78.07
21096;BME280;10706;49.036;12.112;2023-12-04T21:00:24;97110.84;;;-4.40;77.44
21096;BME280;10706;49.036;12.112;2023-12-04T21:02:50;97107.81;;;-4.27;77.39
21096;BME280;10706;49.036;12.112;2023-12-04T21:05:19;97107.66;;;-4.26;77.36